Language: 

Nearby METAR Reports

METAR Reports

Hourly observations from airfields within 50 miles of this weather station

 

EGHH - Bournemouth Airp, United Kingdom
Distance from station: S 10mi, 17km
Updated: Sun, 25-Feb-2018 1:20pm GMT
Clear
Clear
 Wind from E
Wind: E 16 mph , 26 km/h
Temperature: 6°C
Wind Chill: 2°C
Dew Point: -7°C
Humidity: 39%
Barometer: 1025 hPa
Summary: Clear
Visibility: greater than 7 miles , 10 km
2018/02/25 13:20 EGHH 251320Z 08014KT CAVOK 06/M07 Q1025
EGDM - Boscombe Down, United Kingdom
Distance from station: N 16mi, 26km
Updated: Sun, 25-Feb-2018 12:50pm GMT
Clear
Clear
 Wind from ENE
Wind: ENE 17 mph , 28 km/h
Temperature: 5°C
Wind Chill: 1°C
Dew Point: -6°C
Humidity: 45%
Barometer: 1026 hPa
Summary: Clear
Visibility: greater than 7 miles , 10 km
2018/02/25 12:50 EGDM 251250Z 07015KT CAVOK 05/M06 Q1026 BLU NOSIG
 
EGVP - Middle Wallop, United Kingdom
Distance from station: NE 17mi, 27km
Updated: Sun, 25-Feb-2018 12:50pm GMT
Clear
Clear
 Wind from NE
Wind: NE 17 mph , 28 km/h
Temperature: 5°C
Wind Chill: 1°C
Dew Point: -6°C
Humidity: 45%
Barometer: 1026 hPa
Clouds: Clear
Visibility: 6 miles , 10 km
2018/02/25 12:50 EGVP 251250Z AUTO 05015KT 9999 // NCD 05/M06 Q1026
EGHI - Southampton Wx C, United Kingdom
Distance from station: E 19mi, 31km
Updated: Sun, 25-Feb-2018 1:20pm GMT
Clear
Clear
 Wind from ENE
Wind: ENE 10 mph , 17 km/h
Temperature: 5°C
Wind Chill: 2°C
Dew Point: -7°C
Humidity: 42%
Barometer: 1026 hPa
Summary: Clear
Visibility: greater than 7 miles , 10 km
2018/02/25 13:20 EGHI 251320Z 06009KT 020V100 CAVOK 05/M07 Q1026
 
EGDY - Yeovilton (navy), United Kingdom
Distance from station: W 36mi, 58km
Updated: Sun, 25-Feb-2018 12:50pm GMT
Clear
Clear
 Wind from ENE
Wind: ENE 15 mph , 24 km/h
Temperature: 5°C
Wind Chill: 1°C
Dew Point: -6°C
Humidity: 45%
Barometer: 1026 hPa
Clouds: Clear
Visibility: 6 miles , 10 km
2018/02/25 12:50 EGDY 251250Z AUTO 06013KT 9999 NCD 05/M06 Q1026
EGVO - Odiham Raf, United Kingdom
Distance from station: ENE 42mi, 68km
Updated: Sun, 25-Feb-2018 12:50pm GMT
Clear
Clear
 Wind from ENE
Wind: ENE 14 mph , 22 km/h, Gust: 25 mph , 41 km/h
Temperature: 4°C
Wind Chill: -1°C
Dew Point: -6°C
Humidity: 48%
Barometer: 1026 hPa
Clouds: Clear
Visibility: 6 miles , 10 km
2018/02/25 12:50 EGVO 251250Z AUTO 06012G22KT 9999 NCD 04/M06 Q1026

Metar display script from Saratoga-Weather.org

top of page button